Douglas, WY (82633)

4:07 AM MDT on August 27, 2016 (GMT -0600)
Converse County | | Change Station
Active Advisory: Fire Weather Warning

Elev 4928 ft 42.80 °N, 105.38 °W | Updated 14 minutes ago

Clear
Clear
45 °F
Feels Like 43 °F
N
5
Wind Variable Wind from East

Today
High -- | Low -- °F
--% Chance of Precip.
Yesterday
High -- | Low -- °F
Precip. -- in
Pressure 29.94 in
Visibility 10.0 miles
Clouds Clear
Windchill 43 °F
Dew Point 43 °F
Humidity 93%
Rainfall 0.00 in
Snow Depth Not available.
6:21 AM 7:43 PM
Waning Crescent, 26% visible
METAR KDGW 270953Z AUTO 10004KT 10SM CLR 07/06 A3006 RMK AO2 SLP136 T00720061
Pressure 29.94 in
Visibility 10.0 miles
Clouds Clear
Windchill 43 °F
Dew Point 43 °F
Humidity 93%
Rainfall 0.00 in
Snow Depth Not available.
6:21 AM 7:43 PM
Waning Crescent, 26% visible
METAR KDGW 270953Z AUTO 10004KT 10SM CLR 07/06 A3006 RMK AO2 SLP136 T00720061

10-Day Weather Forecast

Almanac

Astronomy

Aug. 27, 2016 Rise Set
Actual Time
Civil Twilight
Nautical Twilight
Astronomical Twilight
Moon
Length of Visible Light
Length of Day
Tomorrow will be .
, % of the Moon is Illuminated

Today's Extremes

State Highs State Lows

Community

WunderPhotos

Upload Photos

1,935,313 photos uploaded!

WunderBlog® & News

Nearby

Air Quality

  Air Quality AQ Index Pollutant
Not available.

Snow Depth

Station Depth Elevation

Earthquake Activity

City Distance Mag. Time & Date
Minimum magnitude displayed is 2.5.

Coastal Water Temperatures

Place Temperature

Stations

Nearby Weather Stations

Station Location Temp. Windchill Dew Point Humidity Wind Precip. Elev Updated Type
                   

Watches & Warnings

Fire Weather Warning
Issued: 3:54 AM MDT Aug. 27, 2016 – National Weather Service

... Red flag warning remains in effect from noon today to 8 PM MDT
this evening for gusty west winds and low humidities for fire
weather zones 302... 304 and 306...

* affected area... fire weather zone 302. Fire weather zone 304.
Fire weather zone 306.

* Wind... west to southwest at 15 to 20 mph with gusts to 30 mph.

* Humidity... afternoon humidities of 10 to 15 percent.

* Impacts... the combination of gusty winds and low humidities
could create conditions favorable for rapid fire growth.
Outdoor burning is not recommended.

Precautionary/preparedness actions...

A red flag warning means that critical fire weather conditions
are either occurring now... .or will shortly. A combination of
strong winds... low relative humidity... and warm temperatures can
contribute to extreme fire behavior.